sensor_id;sensor_type;location;lat;lon;timestamp;P1;durP1;ratioP1;P2;durP2;ratioP2
7080;SDS011;3582;51.506;11.948;2023-12-20T00:00:49;5.13;;;4.63;;
7080;SDS011;3582;51.506;11.948;2023-12-20T00:03:15;7.43;;;4.27;;
7080;SDS011;3582;51.506;11.948;2023-12-20T00:05:41;4.60;;;4.13;;
7080;SDS011;3582;51.506;11.948;2023-12-20T00:08:07;5.53;;;4.97;;
7080;SDS011;3582;51.506;11.948;2023-12-20T00:10:33;5.30;;;4.80;;
7080;SDS011;3582;51.506;11.948;2023-12-20T00:12:59;4.57;;;4.20;;
7080;SDS011;3582;51.506;11.948;2023-12-20T00:15:25;6.20;;;5.17;;
7080;SDS011;3582;51.506;11.948;2023-12-20T00:17:51;5.90;;;4.77;;
7080;SDS011;3582;51.506;11.948;2023-12-20T00:20:17;7.77;;;5.00;;
7080;SDS011;3582;51.506;11.948;2023-12-20T00:22:43;4.50;;;3.37;;
7080;SDS011;3582;51.506;11.948;2023-12-20T00:25:09;4.77;;;4.33;;
7080;SDS011;3582;51.506;11.948;2023-12-20T00:27:35;5.17;;;4.37;;
7080;SDS011;3582;51.506;11.948;2023-12-20T00:30:00;5.17;;;4.67;;
7080;SDS011;3582;51.506;11.948;2023-12-20T00:32:26;4.73;;;4.33;;
7080;SDS011;3582;51.506;11.948;2023-12-20T00:34:52;5.97;;;4.33;;
7080;SDS011;3582;51.506;11.948;2023-12-20T00:37:18;4.90;;;4.50;;
7080;SDS011;3582;51.506;11.948;2023-12-20T00:39:44;5.93;;;4.57;;
7080;SDS011;3582;51.506;11.948;2023-12-20T00:42:10;5.50;;;4.40;;
7080;SDS011;3582;51.506;11.948;2023-12-20T00:44:36;4.30;;;3.90;;
7080;SDS011;3582;51.506;11.948;2023-12-20T00:47:02;5.80;;;5.22;;
7080;SDS011;3582;51.506;11.948;2023-12-20T00:49:28;6.13;;;5.20;;
7080;SDS011;3582;51.506;11.948;2023-12-20T00:51:54;5.67;;;4.87;;
7080;SDS011;3582;51.506;11.948;2023-12-20T00:54:20;5.78;;;5.22;;
7080;SDS011;3582;51.506;11.948;2023-12-20T00:56:46;5.80;;;5.17;;
7080;SDS011;3582;51.506;11.948;2023-12-20T00:59:12;4.90;;;4.30;;
7080;SDS011;3582;51.506;11.948;2023-12-20T01:01:38;5.88;;;5.25;;
7080;SDS011;3582;51.506;11.948;2023-12-20T01:04:04;7.10;;;5.60;;
7080;SDS011;3582;51.506;11.948;2023-12-20T01:06:30;6.70;;;5.57;;
7080;SDS011;3582;51.506;11.948;2023-12-20T01:08:56;6.43;;;5.53;;
7080;SDS011;3582;51.506;11.948;2023-12-20T01:11:22;6.10;;;5.60;;
7080;SDS011;3582;51.506;11.948;2023-12-20T01:13:48;5.80;;;5.20;;
7080;SDS011;3582;51.506;11.948;2023-12-20T01:16:14;6.37;;;4.93;;
7080;SDS011;3582;51.506;11.948;2023-12-20T01:18:40;7.10;;;6.30;;
7080;SDS011;3582;51.506;11.948;2023-12-20T01:21:05;7.57;;;5.77;;
7080;SDS011;3582;51.506;11.948;2023-12-20T01:23:32;5.60;;;4.97;;
7080;SDS011;3582;51.506;11.948;2023-12-20T01:25:58;5.35;;;4.85;;
7080;SDS011;3582;51.506;11.948;2023-12-20T01:28:27;5.43;;;4.63;;
7080;SDS011;3582;51.506;11.948;2023-12-20T01:30:53;5.97;;;4.90;;
7080;SDS011;3582;51.506;11.948;2023-12-20T01:33:19;6.70;;;6.00;;
7080;SDS011;3582;51.506;11.948;2023-12-20T01:35:45;5.87;;;4.97;;
7080;SDS011;3582;51.506;11.948;2023-12-20T01:38:11;6.93;;;5.47;;
7080;SDS011;3582;51.506;11.948;2023-12-20T01:40:37;8.20;;;6.03;;
7080;SDS011;3582;51.506;11.948;2023-12-20T01:43:07;6.00;;;4.90;;
7080;SDS011;3582;51.506;11.948;2023-12-20T01:45:34;4.78;;;4.28;;
7080;SDS011;3582;51.506;11.948;2023-12-20T01:48:01;6.25;;;5.57;;
7080;SDS011;3582;51.506;11.948;2023-12-20T01:50:28;5.63;;;5.00;;
7080;SDS011;3582;51.506;11.948;2023-12-20T01:52:54;5.47;;;4.93;;
7080;SDS011;3582;51.506;11.948;2023-12-20T01:55:22;6.57;;;5.60;;
7080;SDS011;3582;51.506;11.948;2023-12-20T01:57:48;8.40;;;5.30;;
7080;SDS011;3582;51.506;11.948;2023-12-20T02:00:14;5.63;;;5.03;;
7080;SDS011;3582;51.506;11.948;2023-12-20T02:02:41;6.43;;;5.40;;
7080;SDS011;3582;51.506;11.948;2023-12-20T02:05:07;5.20;;;4.70;;
7080;SDS011;3582;51.506;11.948;2023-12-20T02:07:33;6.20;;;5.50;;
7080;SDS011;3582;51.506;11.948;2023-12-20T02:10:00;5.78;;;5.25;;
7080;SDS011;3582;51.506;11.948;2023-12-20T02:12:26;5.85;;;5.30;;
7080;SDS011;3582;51.506;11.948;2023-12-20T02:14:52;6.10;;;5.50;;
7080;SDS011;3582;51.506;11.948;2023-12-20T02:17:19;6.03;;;5.07;;
7080;SDS011;3582;51.506;11.948;2023-12-20T02:19:45;5.32;;;4.82;;
7080;SDS011;3582;51.506;11.948;2023-12-20T02:22:11;6.43;;;5.20;;
7080;SDS011;3582;51.506;11.948;2023-12-20T02:24:37;5.18;;;4.78;;
7080;SDS011;3582;51.506;11.948;2023-12-20T02:27:04;4.88;;;4.30;;
7080;SDS011;3582;51.506;11.948;2023-12-20T02:29:30;7.28;;;5.43;;
7080;SDS011;3582;51.506;11.948;2023-12-20T02:31:56;5.43;;;4.90;;
7080;SDS011;3582;51.506;11.948;2023-12-20T02:34:22;5.57;;;5.07;;
7080;SDS011;3582;51.506;11.948;2023-12-20T02:36:48;5.37;;;4.87;;
7080;SDS011;3582;51.506;11.948;2023-12-20T02:39:14;5.53;;;4.73;;
7080;SDS011;3582;51.506;11.948;2023-12-20T02:41:40;7.00;;;5.57;;
7080;SDS011;3582;51.506;11.948;2023-12-20T02:44:06;6.33;;;5.73;;
7080;SDS011;3582;51.506;11.948;2023-12-20T02:46:32;5.40;;;4.60;;
7080;SDS011;3582;51.506;11.948;2023-12-20T02:48:57;6.27;;;5.63;;
7080;SDS011;3582;51.506;11.948;2023-12-20T02:51:23;6.50;;;5.57;;
7080;SDS011;3582;51.506;11.948;2023-12-20T02:53:49;5.30;;;4.70;;
7080;SDS011;3582;51.506;11.948;2023-12-20T02:56:15;6.00;;;5.10;;
7080;SDS011;3582;51.506;11.948;2023-12-20T02:58:41;5.63;;;5.10;;
7080;SDS011;3582;51.506;11.948;2023-12-20T03:01:07;5.60;;;5.07;;
7080;SDS011;3582;51.506;11.948;2023-12-20T03:03:33;7.05;;;5.32;;
7080;SDS011;3582;51.506;11.948;2023-12-20T03:05:59;5.03;;;4.63;;
7080;SDS011;3582;51.506;11.948;2023-12-20T03:08:25;6.90;;;4.35;;
7080;SDS011;3582;51.506;11.948;2023-12-20T03:10:51;5.88;;;5.28;;
7080;SDS011;3582;51.506;11.948;2023-12-20T03:13:18;5.45;;;4.90;;
7080;SDS011;3582;51.506;11.948;2023-12-20T03:15:44;6.22;;;5.65;;
7080;SDS011;3582;51.506;11.948;2023-12-20T03:18:10;5.00;;;4.50;;
7080;SDS011;3582;51.506;11.948;2023-12-20T03:20:36;5.97;;;4.57;;
7080;SDS011;3582;51.506;11.948;2023-12-20T03:23:02;6.70;;;4.63;;
7080;SDS011;3582;51.506;11.948;2023-12-20T03:25:28;8.20;;;4.38;;
7080;SDS011;3582;51.506;11.948;2023-12-20T03:27:54;5.17;;;4.67;;
7080;SDS011;3582;51.506;11.948;2023-12-20T03:30:20;4.93;;;4.50;;
7080;SDS011;3582;51.506;11.948;2023-12-20T03:32:46;4.53;;;4.13;;
7080;SDS011;3582;51.506;11.948;2023-12-20T03:35:12;6.55;;;4.88;;
7080;SDS011;3582;51.506;11.948;2023-12-20T03:37:38;5.78;;;5.20;;
7080;SDS011;3582;51.506;11.948;2023-12-20T03:40:04;5.53;;;4.53;;
7080;SDS011;3582;51.506;11.948;2023-12-20T03:42:30;5.80;;;5.20;;
7080;SDS011;3582;51.506;11.948;2023-12-20T03:44:56;5.13;;;4.63;;
7080;SDS011;3582;51.506;11.948;2023-12-20T03:47:22;7.43;;;5.50;;
7080;SDS011;3582;51.506;11.948;2023-12-20T03:49:48;6.43;;;5.83;;
7080;SDS011;3582;51.506;11.948;2023-12-20T03:52:14;5.50;;;5.00;;
7080;SDS011;3582;51.506;11.948;2023-12-20T03:54:40;6.10;;;5.50;;
7080;SDS011;3582;51.506;11.948;2023-12-20T03:57:07;6.15;;;5.40;;
7080;SDS011;3582;51.506;11.948;2023-12-20T03:59:36;5.83;;;5.23;;
7080;SDS011;3582;51.506;11.948;2023-12-20T04:02:03;5.53;;;4.75;;
7080;SDS011;3582;51.506;11.948;2023-12-20T04:04:29;5.63;;;5.13;;
7080;SDS011;3582;51.506;11.948;2023-12-20T04:06:55;5.27;;;4.50;;
7080;SDS011;3582;51.506;11.948;2023-12-20T04:09:21;5.00;;;4.53;;
7080;SDS011;3582;51.506;11.948;2023-12-20T04:11:47;5.23;;;4.30;;
7080;SDS011;3582;51.506;11.948;2023-12-20T04:14:12;5.80;;;5.20;;
7080;SDS011;3582;51.506;11.948;2023-12-20T04:16:39;6.47;;;5.72;;
7080;SDS011;3582;51.506;11.948;2023-12-20T04:19:05;4.60;;;4.20;;
7080;SDS011;3582;51.506;11.948;2023-12-20T04:21:31;5.23;;;4.70;;
7080;SDS011;3582;51.506;11.948;2023-12-20T04:23:56;5.43;;;4.80;;
7080;SDS011;3582;51.506;11.948;2023-12-20T04:26:22;4.60;;;4.20;;
7080;SDS011;3582;51.506;11.948;2023-12-20T04:28:48;6.63;;;4.07;;
7080;SDS011;3582;51.506;11.948;2023-12-20T04:31:14;4.77;;;4.30;;
7080;SDS011;3582;51.506;11.948;2023-12-20T04:33:40;6.23;;;5.67;;
7080;SDS011;3582;51.506;11.948;2023-12-20T04:36:06;4.70;;;4.30;;
7080;SDS011;3582;51.506;11.948;2023-12-20T04:38:34;5.90;;;5.32;;
7080;SDS011;3582;51.506;11.948;2023-12-20T04:40:59;4.90;;;4.40;;
7080;SDS011;3582;51.506;11.948;2023-12-20T04:43:25;6.30;;;4.60;;
7080;SDS011;3582;51.506;11.948;2023-12-20T04:45:51;7.10;;;5.23;;
7080;SDS011;3582;51.506;11.948;2023-12-20T04:48:17;5.07;;;4.23;;
7080;SDS011;3582;51.506;11.948;2023-12-20T04:50:43;6.60;;;5.17;;
7080;SDS011;3582;51.506;11.948;2023-12-20T04:53:09;5.55;;;5.07;;
7080;SDS011;3582;51.506;11.948;2023-12-20T04:55:35;7.47;;;5.60;;
7080;SDS011;3582;51.506;11.948;2023-12-20T04:58:01;6.60;;;4.75;;
7080;SDS011;3582;51.506;11.948;2023-12-20T05:00:27;5.33;;;4.83;;
7080;SDS011;3582;51.506;11.948;2023-12-20T05:02:53;6.07;;;4.93;;
7080;SDS011;3582;51.506;11.948;2023-12-20T05:05:20;7.20;;;6.07;;
7080;SDS011;3582;51.506;11.948;2023-12-20T05:07:46;6.70;;;6.07;;
7080;SDS011;3582;51.506;11.948;2023-12-20T05:10:12;6.77;;;5.93;;
7080;SDS011;3582;51.506;11.948;2023-12-20T05:12:38;6.53;;;5.57;;
7080;SDS011;3582;51.506;11.948;2023-12-20T05:15:05;7.03;;;5.55;;
7080;SDS011;3582;51.506;11.948;2023-12-20T05:17:31;6.97;;;6.07;;
7080;SDS011;3582;51.506;11.948;2023-12-20T05:19:57;5.93;;;5.33;;
7080;SDS011;3582;51.506;11.948;2023-12-20T05:22:23;9.33;;;6.80;;
7080;SDS011;3582;51.506;11.948;2023-12-20T05:24:49;6.83;;;5.63;;
7080;SDS011;3582;51.506;11.948;2023-12-20T05:27:15;5.20;;;4.70;;
7080;SDS011;3582;51.506;11.948;2023-12-20T05:29:41;5.43;;;4.87;;
7080;SDS011;3582;51.506;11.948;2023-12-20T05:32:07;9.30;;;6.63;;
7080;SDS011;3582;51.506;11.948;2023-12-20T05:34:32;5.60;;;4.90;;
7080;SDS011;3582;51.506;11.948;2023-12-20T05:36:58;8.17;;;5.80;;
7080;SDS011;3582;51.506;11.948;2023-12-20T05:39:26;8.20;;;6.25;;
7080;SDS011;3582;51.506;11.948;2023-12-20T05:41:52;5.27;;;4.77;;
7080;SDS011;3582;51.506;11.948;2023-12-20T05:44:17;6.43;;;5.83;;
7080;SDS011;3582;51.506;11.948;2023-12-20T05:46:44;4.68;;;4.22;;
7080;SDS011;3582;51.506;11.948;2023-12-20T05:49:10;6.73;;;4.47;;
7080;SDS011;3582;51.506;11.948;2023-12-20T05:51:36;5.00;;;4.50;;
7080;SDS011;3582;51.506;11.948;2023-12-20T05:54:02;6.20;;;4.70;;
7080;SDS011;3582;51.506;11.948;2023-12-20T05:56:29;6.07;;;4.38;;
7080;SDS011;3582;51.506;11.948;2023-12-20T05:58:55;6.10;;;4.90;;
7080;SDS011;3582;51.506;11.948;2023-12-20T06:01:20;4.73;;;4.10;;
7080;SDS011;3582;51.506;11.948;2023-12-20T06:03:46;6.60;;;5.30;;
7080;SDS011;3582;51.506;11.948;2023-12-20T06:06:12;8.10;;;6.13;;
7080;SDS011;3582;51.506;11.948;2023-12-20T06:08:38;6.78;;;4.70;;
7080;SDS011;3582;51.506;11.948;2023-12-20T06:11:04;5.18;;;4.07;;
7080;SDS011;3582;51.506;11.948;2023-12-20T06:13:30;4.90;;;4.27;;
7080;SDS011;3582;51.506;11.948;2023-12-20T06:15:57;6.75;;;4.32;;
7080;SDS011;3582;51.506;11.948;2023-12-20T06:18:23;5.37;;;3.93;;
7080;SDS011;3582;51.506;11.948;2023-12-20T06:20:49;4.32;;;3.85;;
7080;SDS011;3582;51.506;11.948;2023-12-20T06:23:15;7.80;;;5.97;;
7080;SDS011;3582;51.506;11.948;2023-12-20T06:25:41;4.63;;;3.97;;
7080;SDS011;3582;51.506;11.948;2023-12-20T06:28:07;8.13;;;5.10;;
7080;SDS011;3582;51.506;11.948;2023-12-20T06:30:35;10.30;;;6.45;;
7080;SDS011;3582;51.506;11.948;2023-12-20T06:33:01;10.07;;;4.90;;
7080;SDS011;3582;51.506;11.948;2023-12-20T06:35:27;6.47;;;5.32;;
7080;SDS011;3582;51.506;11.948;2023-12-20T06:37:53;8.32;;;4.63;;
7080;SDS011;3582;51.506;11.948;2023-12-20T06:40:19;5.77;;;5.00;;
7080;SDS011;3582;51.506;11.948;2023-12-20T06:42:45;6.70;;;4.68;;
7080;SDS011;3582;51.506;11.948;2023-12-20T06:45:11;5.13;;;4.63;;
7080;SDS011;3582;51.506;11.948;2023-12-20T06:47:37;5.95;;;4.43;;
7080;SDS011;3582;51.506;11.948;2023-12-20T06:50:04;5.07;;;4.40;;
7080;SDS011;3582;51.506;11.948;2023-12-20T06:52:30;5.75;;;5.22;;
7080;SDS011;3582;51.506;11.948;2023-12-20T06:54:56;13.27;;;11.80;;
7080;SDS011;3582;51.506;11.948;2023-12-20T06:57:21;5.63;;;4.77;;
7080;SDS011;3582;51.506;11.948;2023-12-20T06:59:48;9.95;;;6.00;;
7080;SDS011;3582;51.506;11.948;2023-12-20T07:02:14;7.23;;;4.50;;
7080;SDS011;3582;51.506;11.948;2023-12-20T07:04:40;10.40;;;4.57;;
7080;SDS011;3582;51.506;11.948;2023-12-20T07:07:07;3.92;;;3.63;;
7080;SDS011;3582;51.506;11.948;2023-12-20T07:09:33;4.95;;;4.10;;
7080;SDS011;3582;51.506;11.948;2023-12-20T07:11:59;4.32;;;2.95;;
7080;SDS011;3582;51.506;11.948;2023-12-20T07:14:25;4.07;;;2.90;;
7080;SDS011;3582;51.506;11.948;2023-12-20T07:16:54;3.85;;;2.70;;
7080;SDS011;3582;51.506;11.948;2023-12-20T07:19:20;11.03;;;3.60;;
7080;SDS011;3582;51.506;11.948;2023-12-20T07:21:46;3.20;;;2.90;;
7080;SDS011;3582;51.506;11.948;2023-12-20T07:24:12;3.83;;;2.87;;
7080;SDS011;3582;51.506;11.948;2023-12-20T07:26:37;4.30;;;2.83;;
7080;SDS011;3582;51.506;11.948;2023-12-20T07:29:07;6.43;;;3.10;;
7080;SDS011;3582;51.506;11.948;2023-12-20T07:31:33;4.72;;;3.00;;
7080;SDS011;3582;51.506;11.948;2023-12-20T07:33:59;8.05;;;3.60;;
7080;SDS011;3582;51.506;11.948;2023-12-20T07:36:25;6.40;;;3.80;;
7080;SDS011;3582;51.506;11.948;2023-12-20T07:38:51;11.90;;;3.10;;
7080;SDS011;3582;51.506;11.948;2023-12-20T07:41:17;4.20;;;2.73;;
7080;SDS011;3582;51.506;11.948;2023-12-20T07:43:46;3.13;;;2.83;;
7080;SDS011;3582;51.506;11.948;2023-12-20T07:46:12;5.63;;;2.67;;
7080;SDS011;3582;51.506;11.948;2023-12-20T07:48:38;6.57;;;1.80;;
7080;SDS011;3582;51.506;11.948;2023-12-20T07:51:04;4.13;;;2.40;;
7080;SDS011;3582;51.506;11.948;2023-12-20T07:53:32;5.22;;;2.85;;
7080;SDS011;3582;51.506;11.948;2023-12-20T07:55:57;4.10;;;2.17;;
7080;SDS011;3582;51.506;11.948;2023-12-20T07:58:23;3.43;;;2.00;;
7080;SDS011;3582;51.506;11.948;2023-12-20T08:00:49;1.90;;;1.80;;
7080;SDS011;3582;51.506;11.948;2023-12-20T08:03:15;5.53;;;2.20;;
7080;SDS011;3582;51.506;11.948;2023-12-20T08:05:41;2.50;;;1.63;;
7080;SDS011;3582;51.506;11.948;2023-12-20T08:08:07;4.00;;;1.80;;
7080;SDS011;3582;51.506;11.948;2023-12-20T08:10:33;3.93;;;2.20;;
7080;SDS011;3582;51.506;11.948;2023-12-20T08:12:59;6.83;;;2.20;;
7080;SDS011;3582;51.506;11.948;2023-12-20T08:15:25;2.53;;;2.20;;
7080;SDS011;3582;51.506;11.948;2023-12-20T08:17:51;4.20;;;2.03;;
7080;SDS011;3582;51.506;11.948;2023-12-20T08:20:17;2.75;;;2.10;;
7080;SDS011;3582;51.506;11.948;2023-12-20T08:22:43;7.20;;;4.40;;
7080;SDS011;3582;51.506;11.948;2023-12-20T08:25:09;4.53;;;2.40;;
7080;SDS011;3582;51.506;11.948;2023-12-20T08:27:41;5.63;;;2.03;;
7080;SDS011;3582;51.506;11.948;2023-12-20T08:30:10;9.85;;;2.67;;
7080;SDS011;3582;51.506;11.948;2023-12-20T08:32:36;9.88;;;2.50;;
7080;SDS011;3582;51.506;11.948;2023-12-20T08:35:02;2.13;;;1.93;;
7080;SDS011;3582;51.506;11.948;2023-12-20T08:37:29;8.50;;;2.20;;
7080;SDS011;3582;51.506;11.948;2023-12-20T08:39:55;2.78;;;2.38;;
7080;SDS011;3582;51.506;11.948;2023-12-20T08:42:21;3.47;;;1.52;;
7080;SDS011;3582;51.506;11.948;2023-12-20T08:44:49;4.90;;;1.90;;
7080;SDS011;3582;51.506;11.948;2023-12-20T08:47:15;6.03;;;3.10;;
7080;SDS011;3582;51.506;11.948;2023-12-20T08:49:42;6.50;;;2.67;;
7080;SDS011;3582;51.506;11.948;2023-12-20T08:52:08;4.55;;;2.47;;
7080;SDS011;3582;51.506;11.948;2023-12-20T08:54:34;11.02;;;2.70;;
7080;SDS011;3582;51.506;11.948;2023-12-20T08:57:00;4.70;;;2.10;;
7080;SDS011;3582;51.506;11.948;2023-12-20T08:59:26;8.50;;;3.87;;
7080;SDS011;3582;51.506;11.948;2023-12-20T09:01:52;3.93;;;2.93;;
7080;SDS011;3582;51.506;11.948;2023-12-20T09:04:19;4.40;;;2.03;;
7080;SDS011;3582;51.506;11.948;2023-12-20T09:06:45;5.65;;;2.60;;
7080;SDS011;3582;51.506;11.948;2023-12-20T09:09:11;7.40;;;2.73;;
7080;SDS011;3582;51.506;11.948;2023-12-20T09:11:39;8.68;;;2.60;;
7080;SDS011;3582;51.506;11.948;2023-12-20T09:14:05;3.70;;;2.00;;
7080;SDS011;3582;51.506;11.948;2023-12-20T09:16:31;2.67;;;2.30;;
7080;SDS011;3582;51.506;11.948;2023-12-20T09:18:57;2.10;;;2.00;;
7080;SDS011;3582;51.506;11.948;2023-12-20T09:21:23;7.53;;;2.83;;
7080;SDS011;3582;51.506;11.948;2023-12-20T09:23:49;4.95;;;2.60;;
7080;SDS011;3582;51.506;11.948;2023-12-20T09:26:15;4.10;;;3.80;;
7080;SDS011;3582;51.506;11.948;2023-12-20T09:28:41;4.53;;;2.83;;
7080;SDS011;3582;51.506;11.948;2023-12-20T09:31:07;4.90;;;2.53;;
7080;SDS011;3582;51.506;11.948;2023-12-20T09:33:33;2.63;;;2.43;;
7080;SDS011;3582;51.506;11.948;2023-12-20T09:35:59;4.20;;;2.05;;
7080;SDS011;3582;51.506;11.948;2023-12-20T09:38:25;5.00;;;3.00;;
7080;SDS011;3582;51.506;11.948;2023-12-20T09:40:51;9.90;;;3.90;;
7080;SDS011;3582;51.506;11.948;2023-12-20T09:43:18;6.47;;;2.30;;
7080;SDS011;3582;51.506;11.948;2023-12-20T09:45:48;6.60;;;2.05;;
7080;SDS011;3582;51.506;11.948;2023-12-20T09:48:14;4.97;;;1.90;;
7080;SDS011;3582;51.506;11.948;2023-12-20T09:50:44;4.43;;;2.25;;
7080;SDS011;3582;51.506;11.948;2023-12-20T09:53:10;12.57;;;4.30;;
7080;SDS011;3582;51.506;11.948;2023-12-20T09:55:37;10.13;;;4.40;;
7080;SDS011;3582;51.506;11.948;2023-12-20T09:58:03;4.50;;;3.20;;
7080;SDS011;3582;51.506;11.948;2023-12-20T10:00:30;7.32;;;2.70;;
7080;SDS011;3582;51.506;11.948;2023-12-20T10:02:57;3.97;;;2.57;;
7080;SDS011;3582;51.506;11.948;2023-12-20T10:05:28;9.95;;;3.70;;
7080;SDS011;3582;51.506;11.948;2023-12-20T10:07:54;5.65;;;3.40;;
7080;SDS011;3582;51.506;11.948;2023-12-20T10:10:20;7.30;;;4.30;;
7080;SDS011;3582;51.506;11.948;2023-12-20T10:13:00;3.30;;;2.43;;
7080;SDS011;3582;51.506;11.948;2023-12-20T10:15:26;8.63;;;3.30;;
7080;SDS011;3582;51.506;11.948;2023-12-20T10:17:52;6.57;;;2.53;;
7080;SDS011;3582;51.506;11.948;2023-12-20T10:20:19;5.28;;;3.13;;
7080;SDS011;3582;51.506;11.948;2023-12-20T10:22:45;5.10;;;3.60;;
7080;SDS011;3582;51.506;11.948;2023-12-20T10:25:12;5.15;;;2.90;;
7080;SDS011;3582;51.506;11.948;2023-12-20T10:27:38;10.13;;;3.83;;
7080;SDS011;3582;51.506;11.948;2023-12-20T10:30:04;15.73;;;5.00;;
7080;SDS011;3582;51.506;11.948;2023-12-20T10:32:30;28.13;;;4.95;;
7080;SDS011;3582;51.506;11.948;2023-12-20T10:34:56;5.70;;;2.90;;
7080;SDS011;3582;51.506;11.948;2023-12-20T10:37:24;5.05;;;3.58;;
7080;SDS011;3582;51.506;11.948;2023-12-20T10:39:51;4.80;;;2.70;;
7080;SDS011;3582;51.506;11.948;2023-12-20T10:42:19;7.93;;;2.70;;
7080;SDS011;3582;51.506;11.948;2023-12-20T10:44:46;3.78;;;2.60;;
7080;SDS011;3582;51.506;11.948;2023-12-20T10:47:13;7.35;;;3.55;;
7080;SDS011;3582;51.506;11.948;2023-12-20T10:49:39;6.90;;;3.30;;
7080;SDS011;3582;51.506;11.948;2023-12-20T10:52:05;18.55;;;5.03;;
7080;SDS011;3582;51.506;11.948;2023-12-20T10:54:31;11.30;;;4.40;;
7080;SDS011;3582;51.506;11.948;2023-12-20T10:56:58;4.93;;;2.95;;
7080;SDS011;3582;51.506;11.948;2023-12-20T10:59:24;8.48;;;3.13;;
7080;SDS011;3582;51.506;11.948;2023-12-20T11:01:51;8.98;;;3.38;;
7080;SDS011;3582;51.506;11.948;2023-12-20T11:04:21;4.20;;;2.40;;
7080;SDS011;3582;51.506;11.948;2023-12-20T11:06:50;9.80;;;3.25;;
7080;SDS011;3582;51.506;11.948;2023-12-20T11:09:24;30.30;;;6.25;;
7080;SDS011;3582;51.506;11.948;2023-12-20T11:12:06;9.65;;;3.95;;
7080;SDS011;3582;51.506;11.948;2023-12-20T11:14:40;3.65;;;2.55;;
7080;SDS011;3582;51.506;11.948;2023-12-20T11:19:35;3.13;;;2.83;;
7080;SDS011;3582;51.506;11.948;2023-12-20T11:22:01;2.85;;;2.58;;
7080;SDS011;3582;51.506;11.948;2023-12-20T11:24:29;5.20;;;3.17;;
7080;SDS011;3582;51.506;11.948;2023-12-20T11:26:57;6.63;;;2.97;;
7080;SDS011;3582;51.506;11.948;2023-12-20T11:29:37;3.08;;;2.47;;
7080;SDS011;3582;51.506;11.948;2023-12-20T11:32:49;8.15;;;3.08;;
7080;SDS011;3582;51.506;11.948;2023-12-20T11:34:55;8.27;;;2.80;;
7080;SDS011;3582;51.506;11.948;2023-12-20T11:37:22;4.72;;;2.90;;
7080;SDS011;3582;51.506;11.948;2023-12-20T11:40:07;2.90;;;2.57;;
7080;SDS011;3582;51.506;11.948;2023-12-20T11:42:39;2.72;;;2.53;;
7080;SDS011;3582;51.506;11.948;2023-12-20T11:45:05;4.65;;;2.90;;
7080;SDS011;3582;51.506;11.948;2023-12-20T11:47:33;3.67;;;2.47;;
7080;SDS011;3582;51.506;11.948;2023-12-20T11:50:00;5.57;;;2.80;;
7080;SDS011;3582;51.506;11.948;2023-12-20T11:52:28;4.95;;;3.30;;
7080;SDS011;3582;51.506;11.948;2023-12-20T11:54:54;3.00;;;2.50;;
7080;SDS011;3582;51.506;11.948;2023-12-20T11:57:20;6.70;;;2.33;;
7080;SDS011;3582;51.506;11.948;2023-12-20T11:59:46;8.15;;;3.10;;
7080;SDS011;3582;51.506;11.948;2023-12-20T12:02:12;3.73;;;1.70;;
7080;SDS011;3582;51.506;11.948;2023-12-20T12:04:40;2.70;;;2.47;;
7080;SDS011;3582;51.506;11.948;2023-12-20T12:07:06;4.70;;;2.95;;
7080;SDS011;3582;51.506;11.948;2023-12-20T12:09:32;2.33;;;1.97;;
7080;SDS011;3582;51.506;11.948;2023-12-20T12:11:58;6.43;;;2.60;;
7080;SDS011;3582;51.506;11.948;2023-12-20T12:14:24;6.10;;;2.40;;
7080;SDS011;3582;51.506;11.948;2023-12-20T12:16:50;4.25;;;3.85;;
7080;SDS011;3582;51.506;11.948;2023-12-20T12:19:21;3.75;;;2.00;;
7080;SDS011;3582;51.506;11.948;2023-12-20T12:21:48;4.38;;;3.00;;
7080;SDS011;3582;51.506;11.948;2023-12-20T12:24:14;8.20;;;2.50;;
7080;SDS011;3582;51.506;11.948;2023-12-20T12:26:40;4.83;;;2.97;;
7080;SDS011;3582;51.506;11.948;2023-12-20T12:29:07;5.38;;;2.67;;
7080;SDS011;3582;51.506;11.948;2023-12-20T12:31:33;7.05;;;2.60;;
7080;SDS011;3582;51.506;11.948;2023-12-20T12:33:59;4.10;;;2.57;;
7080;SDS011;3582;51.506;11.948;2023-12-20T12:36:25;3.07;;;2.80;;
7080;SDS011;3582;51.506;11.948;2023-12-20T12:38:51;11.63;;;2.63;;
7080;SDS011;3582;51.506;11.948;2023-12-20T12:41:17;3.23;;;2.30;;
7080;SDS011;3582;51.506;11.948;2023-12-20T12:43:43;3.70;;;2.53;;
7080;SDS011;3582;51.506;11.948;2023-12-20T12:46:09;7.23;;;3.37;;
7080;SDS011;3582;51.506;11.948;2023-12-20T12:48:35;8.73;;;2.77;;
7080;SDS011;3582;51.506;11.948;2023-12-20T12:51:01;2.80;;;2.57;;
7080;SDS011;3582;51.506;11.948;2023-12-20T12:53:26;8.57;;;3.60;;
7080;SDS011;3582;51.506;11.948;2023-12-20T12:55:53;2.93;;;2.50;;
7080;SDS011;3582;51.506;11.948;2023-12-20T12:58:19;8.77;;;2.70;;
7080;SDS011;3582;51.506;11.948;2023-12-20T13:00:45;3.63;;;2.23;;
7080;SDS011;3582;51.506;11.948;2023-12-20T13:03:11;12.27;;;3.15;;
7080;SDS011;3582;51.506;11.948;2023-12-20T13:05:37;6.33;;;2.63;;
7080;SDS011;3582;51.506;11.948;2023-12-20T13:08:03;6.60;;;2.70;;
7080;SDS011;3582;51.506;11.948;2023-12-20T13:10:30;5.88;;;2.80;;
7080;SDS011;3582;51.506;11.948;2023-12-20T13:12:55;2.60;;;2.40;;
7080;SDS011;3582;51.506;11.948;2023-12-20T13:15:21;11.73;;;3.37;;
7080;SDS011;3582;51.506;11.948;2023-12-20T13:17:47;6.73;;;2.33;;
7080;SDS011;3582;51.506;11.948;2023-12-20T13:20:13;3.55;;;2.08;;
7080;SDS011;3582;51.506;11.948;2023-12-20T13:22:39;4.57;;;1.87;;
7080;SDS011;3582;51.506;11.948;2023-12-20T13:25:05;2.43;;;2.23;;
7080;SDS011;3582;51.506;11.948;2023-12-20T13:27:31;3.05;;;2.20;;
7080;SDS011;3582;51.506;11.948;2023-12-20T13:29:58;3.40;;;3.10;;
7080;SDS011;3582;51.506;11.948;2023-12-20T13:32:24;3.67;;;2.15;;
7080;SDS011;3582;51.506;11.948;2023-12-20T13:34:50;4.33;;;1.90;;
7080;SDS011;3582;51.506;11.948;2023-12-20T13:37:16;5.28;;;2.95;;
7080;SDS011;3582;51.506;11.948;2023-12-20T13:39:42;3.83;;;2.42;;
7080;SDS011;3582;51.506;11.948;2023-12-20T13:42:08;6.87;;;2.97;;
7080;SDS011;3582;51.506;11.948;2023-12-20T13:44:34;2.77;;;2.27;;
7080;SDS011;3582;51.506;11.948;2023-12-20T13:47:00;3.20;;;2.33;;
7080;SDS011;3582;51.506;11.948;2023-12-20T13:49:27;4.65;;;2.30;;
7080;SDS011;3582;51.506;11.948;2023-12-20T13:51:53;4.00;;;2.73;;
7080;SDS011;3582;51.506;11.948;2023-12-20T13:54:22;10.15;;;2.38;;
7080;SDS011;3582;51.506;11.948;2023-12-20T13:56:48;5.88;;;3.13;;
7080;SDS011;3582;51.506;11.948;2023-12-20T13:59:14;5.70;;;2.73;;
7080;SDS011;3582;51.506;11.948;2023-12-20T14:01:41;8.23;;;3.45;;
7080;SDS011;3582;51.506;11.948;2023-12-20T14:04:07;3.22;;;2.08;;
7080;SDS011;3582;51.506;11.948;2023-12-20T14:06:33;6.70;;;2.13;;
7080;SDS011;3582;51.506;11.948;2023-12-20T14:08:59;4.10;;;2.93;;
7080;SDS011;3582;51.506;11.948;2023-12-20T14:11:28;6.18;;;1.85;;
7080;SDS011;3582;51.506;11.948;2023-12-20T14:13:54;4.00;;;1.97;;
7080;SDS011;3582;51.506;11.948;2023-12-20T14:16:26;5.68;;;2.72;;
7080;SDS011;3582;51.506;11.948;2023-12-20T14:18:52;2.60;;;2.30;;
7080;SDS011;3582;51.506;11.948;2023-12-20T14:21:22;9.05;;;2.22;;
7080;SDS011;3582;51.506;11.948;2023-12-20T14:23:48;2.65;;;2.15;;
7080;SDS011;3582;51.506;11.948;2023-12-20T14:26:14;4.00;;;2.43;;
7080;SDS011;3582;51.506;11.948;2023-12-20T14:28:41;2.97;;;2.10;;
7080;SDS011;3582;51.506;11.948;2023-12-20T14:31:07;4.40;;;2.30;;
7080;SDS011;3582;51.506;11.948;2023-12-20T14:33:35;4.53;;;1.67;;
7080;SDS011;3582;51.506;11.948;2023-12-20T14:36:01;4.27;;;2.20;;
7080;SDS011;3582;51.506;11.948;2023-12-20T14:38:30;12.63;;;2.70;;
7080;SDS011;3582;51.506;11.948;2023-12-20T14:40:56;3.90;;;1.90;;
7080;SDS011;3582;51.506;11.948;2023-12-20T14:43:22;3.17;;;2.10;;
7080;SDS011;3582;51.506;11.948;2023-12-20T14:45:48;2.78;;;2.05;;
7080;SDS011;3582;51.506;11.948;2023-12-20T14:48:15;3.30;;;2.97;;
7080;SDS011;3582;51.506;11.948;2023-12-20T14:50:42;2.22;;;1.92;;
7080;SDS011;3582;51.506;11.948;2023-12-20T14:53:08;2.50;;;2.28;;
7080;SDS011;3582;51.506;11.948;2023-12-20T14:55:34;2.20;;;2.00;;
7080;SDS011;3582;51.506;11.948;2023-12-20T14:58:00;1.67;;;1.57;;